createdAt,value
2016-12-31T00:00:08.258Z,74598
2016-12-31T00:00:16.938Z,74594
2016-12-31T00:00:25.622Z,74595
2016-12-31T00:00:34.292Z,74598
2016-12-31T00:00:42.958Z,74593
2016-12-31T00:00:51.615Z,74594
2016-12-31T00:01:00.286Z,74600
2016-12-31T00:01:08.967Z,74600
2016-12-31T00:01:17.636Z,74597
2016-12-31T00:01:26.330Z,74594
2016-12-31T00:01:35.005Z,74594
2016-12-31T00:01:43.669Z,74593
2016-12-31T00:01:52.343Z,74593
2016-12-31T00:02:01.014Z,74594
2016-12-31T00:02:09.696Z,74597
2016-12-31T00:02:18.376Z,74593
2016-12-31T00:02:27.039Z,74595
2016-12-31T00:02:35.725Z,74591
2016-12-31T00:02:44.397Z,74595
2016-12-31T00:02:53.074Z,74595
2016-12-31T00:03:01.752Z,74592
2016-12-31T00:03:10.423Z,74595
2016-12-31T00:03:19.088Z,74590
2016-12-31T00:03:27.752Z,74592
2016-12-31T00:03:36.422Z,74596
2016-12-31T00:03:45.104Z,74597
2016-12-31T00:03:53.770Z,74593
2016-12-31T00:04:02.430Z,74597
2016-12-31T00:04:11.107Z,74592
2016-12-31T00:04:19.773Z,74594
2016-12-31T00:04:28.463Z,74595
2016-12-31T00:04:37.151Z,74595
2016-12-31T00:04:45.825Z,74591
2016-12-31T00:04:54.477Z,74595
2016-12-31T00:05:03.143Z,74593
2016-12-31T00:05:11.824Z,74591
2016-12-31T00:05:20.501Z,74589
2016-12-31T00:05:29.184Z,74592
2016-12-31T00:05:37.862Z,74592
2016-12-31T00:05:46.522Z,74587
2016-12-31T00:05:55.187Z,74592
2016-12-31T00:06:03.876Z,74591
2016-12-31T00:06:12.548Z,74591
2016-12-31T00:06:21.221Z,74594
2016-12-31T00:06:29.905Z,74596
2016-12-31T00:06:38.616Z,74592
2016-12-31T00:06:47.303Z,74590
2016-12-31T00:06:55.962Z,74592
2016-12-31T00:07:04.629Z,74589
2016-12-31T00:07:13.313Z,74590
2016-12-31T00:07:22.014Z,74592
2016-12-31T00:07:30.692Z,74588
2016-12-31T00:07:39.347Z,74593
2016-12-31T00:07:48.022Z,74593
2016-12-31T00:07:56.688Z,74590
2016-12-31T00:08:05.377Z,74589
2016-12-31T00:08:14.056Z,74592
2016-12-31T00:08:22.735Z,74598
2016-12-31T00:08:31.411Z,74594
2016-12-31T00:08:40.471Z,74592
2016-12-31T00:08:49.151Z,74589
2016-12-31T00:08:57.830Z,74593
2016-12-31T00:09:06.504Z,74591
2016-12-31T00:09:15.197Z,74590
2016-12-31T00:09:23.862Z,74592
2016-12-31T00:09:32.510Z,74590
2016-12-31T00:09:41.176Z,74593
2016-12-31T00:09:49.859Z,74589
2016-12-31T00:09:58.548Z,74589
2016-12-31T00:10:07.230Z,74591
2016-12-31T00:10:15.916Z,74589
2016-12-31T00:10:24.980Z,74588
2016-12-31T00:10:33.650Z,74590
2016-12-31T00:10:42.338Z,74592
2016-12-31T00:10:51.013Z,74589
2016-12-31T00:10:59.672Z,74590
2016-12-31T00:11:08.350Z,74589
2016-12-31T00:11:17.027Z,74590
2016-12-31T00:11:25.705Z,74591
2016-12-31T00:11:34.383Z,74590
2016-12-31T00:11:43.058Z,74589
2016-12-31T00:11:51.747Z,74590
2016-12-31T00:12:00.403Z,74588
2016-12-31T00:12:09.064Z,74591
2016-12-31T00:12:17.748Z,74594
2016-12-31T00:12:26.406Z,74594
2016-12-31T00:12:35.075Z,74590
2016-12-31T00:12:43.756Z,74587
2016-12-31T00:12:52.407Z,74588
2016-12-31T00:13:01.083Z,74587
2016-12-31T00:13:09.761Z,74588
2016-12-31T00:13:18.464Z,74588
2016-12-31T00:13:27.147Z,74592
2016-12-31T00:13:35.805Z,74589
2016-12-31T00:13:44.452Z,74586
2016-12-31T00:13:53.132Z,74584
2016-12-31T00:14:01.824Z,74588
2016-12-31T00:14:10.501Z,74587
2016-12-31T00:14:19.175Z,74590
2016-12-31T00:14:27.855Z,74595
2016-12-31T00:14:36.548Z,74594
2016-12-31T00:14:45.220Z,74591
2016-12-31T00:14:53.894Z,74587
2016-12-31T00:15:02.555Z,74587
2016-12-31T00:15:11.211Z,74591
2016-12-31T00:15:19.896Z,74591
2016-12-31T00:15:28.585Z,74589
2016-12-31T00:15:37.276Z,74585
2016-12-31T00:15:45.941Z,74588
2016-12-31T00:15:54.633Z,74590
2016-12-31T00:16:03.294Z,74587
2016-12-31T00:16:11.944Z,74590
2016-12-31T00:16:20.604Z,74593
2016-12-31T00:16:29.258Z,74593
2016-12-31T00:16:37.928Z,74594
2016-12-31T00:16:46.598Z,74592
2016-12-31T00:16:55.266Z,74592
2016-12-31T00:17:03.957Z,74593
2016-12-31T00:17:12.645Z,74590
2016-12-31T00:17:21.331Z,74591
2016-12-31T00:17:30.016Z,74588
2016-12-31T00:17:38.656Z,74590
2016-12-31T00:17:47.329Z,74593
2016-12-31T00:17:55.983Z,74589
2016-12-31T00:18:04.654Z,74590
2016-12-31T00:18:13.323Z,74589
2016-12-31T00:18:22.004Z,74589
2016-12-31T00:18:30.678Z,74591
2016-12-31T00:18:39.346Z,74589
2016-12-31T00:18:47.999Z,74590
2016-12-31T00:18:56.700Z,74586
2016-12-31T00:19:05.380Z,74587
2016-12-31T00:19:14.044Z,74591
2016-12-31T00:19:22.723Z,74588
2016-12-31T00:19:31.386Z,74588
2016-12-31T00:19:40.070Z,74587
2016-12-31T00:19:48.740Z,74588
2016-12-31T00:19:57.408Z,74589
2016-12-31T00:20:06.072Z,74592
2016-12-31T00:20:14.774Z,74586
2016-12-31T00:20:23.477Z,74589
2016-12-31T00:20:32.143Z,74587
2016-12-31T00:20:40.822Z,74587
2016-12-31T00:20:49.486Z,74591
2016-12-31T00:20:58.174Z,74588
2016-12-31T00:21:06.840Z,74588
2016-12-31T00:21:15.512Z,74589
2016-12-31T00:21:24.190Z,74588
2016-12-31T00:21:32.859Z,74590
2016-12-31T00:21:41.527Z,74589
2016-12-31T00:21:50.199Z,74590
2016-12-31T00:21:58.862Z,74589
2016-12-31T00:22:07.542Z,74589
2016-12-31T00:22:16.217Z,74592
2016-12-31T00:22:24.892Z,74590
2016-12-31T00:22:33.571Z,74589
2016-12-31T00:22:42.255Z,74588
2016-12-31T00:22:50.930Z,74590
2016-12-31T00:22:59.602Z,74592
2016-12-31T00:23:08.304Z,74593
2016-12-31T00:23:16.968Z,74590
2016-12-31T00:23:25.651Z,74591
2016-12-31T00:23:34.327Z,74589
2016-12-31T00:23:43.022Z,74592
2016-12-31T00:23:51.682Z,74589
2016-12-31T00:24:00.330Z,74589
2016-12-31T00:24:08.994Z,74591
2016-12-31T00:24:17.680Z,74589
2016-12-31T00:24:26.338Z,74591
2016-12-31T00:24:35.015Z,74588
2016-12-31T00:24:43.703Z,74587
2016-12-31T00:24:52.387Z,74583
2016-12-31T00:25:01.071Z,74588
2016-12-31T00:25:09.747Z,74591
2016-12-31T00:25:18.427Z,74587
2016-12-31T00:25:27.083Z,74591
2016-12-31T00:25:35.755Z,74589
2016-12-31T00:25:44.458Z,74590
2016-12-31T00:25:53.133Z,74590
2016-12-31T00:26:01.806Z,74589
2016-12-31T00:26:10.505Z,74590
2016-12-31T00:26:19.156Z,74588
2016-12-31T00:26:27.814Z,74586
2016-12-31T00:26:36.489Z,74589
2016-12-31T00:26:45.159Z,74588
2016-12-31T00:26:53.846Z,74585
2016-12-31T00:27:02.515Z,74590
2016-12-31T00:27:11.192Z,74594
2016-12-31T00:27:19.860Z,74591
2016-12-31T00:27:28.565Z,74590
2016-12-31T00:27:37.246Z,74587
2016-12-31T00:27:45.913Z,74587
2016-12-31T00:27:54.573Z,74589
2016-12-31T00:28:03.244Z,74591
2016-12-31T00:28:11.923Z,74587
2016-12-31T00:28:20.605Z,74592
2016-12-31T00:28:29.275Z,74591
2016-12-31T00:28:37.954Z,74591
2016-12-31T00:28:46.615Z,74590
2016-12-31T00:28:55.282Z,74590
2016-12-31T00:29:03.962Z,74590
2016-12-31T00:29:12.617Z,74590
2016-12-31T00:29:21.265Z,74590
2016-12-31T00:29:29.962Z,74590
2016-12-31T00:29:38.641Z,74593
2016-12-31T00:29:47.308Z,74589
2016-12-31T00:29:55.986Z,74587
2016-12-31T00:30:04.659Z,74592
2016-12-31T00:30:13.308Z,74594
2016-12-31T00:30:21.970Z,74588
2016-12-31T00:30:30.640Z,74591
2016-12-31T00:30:39.326Z,74591
2016-12-31T00:30:47.994Z,74589
2016-12-31T00:30:56.668Z,74590
2016-12-31T00:31:05.329Z,74590
2016-12-31T00:31:13.994Z,74591
2016-12-31T00:31:22.675Z,74590
2016-12-31T00:31:31.341Z,74592
2016-12-31T00:31:40.013Z,74594
2016-12-31T00:31:48.675Z,74596
2016-12-31T00:31:57.359Z,74593
2016-12-31T00:32:06.034Z,74597
2016-12-31T00:32:14.710Z,74592
2016-12-31T00:32:23.367Z,74594
2016-12-31T00:32:32.050Z,74589
2016-12-31T00:32:40.730Z,74591
2016-12-31T00:32:49.409Z,74592
2016-12-31T00:32:58.101Z,74590
2016-12-31T00:33:06.773Z,74590
2016-12-31T00:33:15.438Z,74592
2016-12-31T00:33:24.087Z,74590
2016-12-31T00:33:32.771Z,74590
2016-12-31T00:33:41.447Z,74590
2016-12-31T00:33:50.473Z,74591
2016-12-31T00:33:59.149Z,74590
2016-12-31T00:34:07.830Z,74590
2016-12-31T00:34:16.506Z,74597
2016-12-31T00:34:25.189Z,74591
2016-12-31T00:34:33.870Z,74590
2016-12-31T00:34:42.558Z,74591
2016-12-31T00:34:51.230Z,74591
2016-12-31T00:34:59.924Z,74592
2016-12-31T00:35:08.595Z,74590
2016-12-31T00:35:17.265Z,74592
2016-12-31T00:35:25.937Z,74592
2016-12-31T00:35:34.605Z,74589
2016-12-31T00:35:43.266Z,74592
2016-12-31T00:35:51.942Z,74595
2016-12-31T00:36:00.615Z,74594
2016-12-31T00:36:09.290Z,74591
2016-12-31T00:36:17.959Z,74594
2016-12-31T00:36:26.671Z,74587
2016-12-31T00:36:35.354Z,74592
2016-12-31T00:36:44.024Z,74593
2016-12-31T00:36:52.731Z,74594
2016-12-31T00:37:01.389Z,74594
2016-12-31T00:37:10.033Z,74591
2016-12-31T00:37:18.709Z,74590
2016-12-31T00:37:27.399Z,74588
2016-12-31T00:37:36.078Z,74591
2016-12-31T00:37:44.767Z,74590
2016-12-31T00:37:53.441Z,74592
2016-12-31T00:38:02.111Z,74592
2016-12-31T00:38:10.775Z,74594
2016-12-31T00:38:19.438Z,74590
2016-12-31T00:38:28.098Z,74594
2016-12-31T00:38:36.779Z,74592
2016-12-31T00:38:45.445Z,74592
2016-12-31T00:38:54.123Z,74594
2016-12-31T00:39:02.784Z,74591
2016-12-31T00:39:11.475Z,74591
2016-12-31T00:39:20.148Z,74594
2016-12-31T00:39:28.795Z,74594
2016-12-31T00:39:37.466Z,74593
2016-12-31T00:39:46.129Z,74595
2016-12-31T00:39:54.816Z,74592
2016-12-31T00:40:03.495Z,74591
2016-12-31T00:40:12.193Z,74593
2016-12-31T00:40:20.857Z,74591
2016-12-31T00:40:29.515Z,74594
2016-12-31T00:40:38.173Z,74591
2016-12-31T00:40:46.840Z,74592
2016-12-31T00:40:55.513Z,74592
2016-12-31T00:41:04.191Z,74594
2016-12-31T00:41:12.872Z,74591
2016-12-31T00:41:21.566Z,74592
2016-12-31T00:41:30.238Z,74593
2016-12-31T00:41:38.949Z,74590
2016-12-31T00:41:47.626Z,74592
2016-12-31T00:41:56.292Z,74591
2016-12-31T00:42:04.983Z,74587
2016-12-31T00:42:13.642Z,74588
2016-12-31T00:42:22.316Z,74594
2016-12-31T00:42:31.021Z,74593
2016-12-31T00:42:39.692Z,74591
2016-12-31T00:42:48.762Z,74590
2016-12-31T00:42:57.464Z,74593
2016-12-31T00:43:06.502Z,74594
2016-12-31T00:43:15.151Z,74595
2016-12-31T00:43:23.814Z,74591
2016-12-31T00:43:32.477Z,74589
2016-12-31T00:43:41.134Z,74591
2016-12-31T00:43:49.787Z,74590
2016-12-31T00:43:58.487Z,74590
2016-12-31T00:44:07.159Z,74595
2016-12-31T00:44:15.827Z,74590
2016-12-31T00:44:24.492Z,74594
2016-12-31T00:44:33.167Z,74588
2016-12-31T00:44:41.817Z,74593
2016-12-31T00:44:50.505Z,74592
2016-12-31T00:44:59.202Z,74593
2016-12-31T00:45:07.872Z,74591
2016-12-31T00:45:16.547Z,74589
2016-12-31T00:45:25.217Z,74589
2016-12-31T00:45:33.882Z,74588
2016-12-31T00:45:42.545Z,74586
2016-12-31T00:45:51.219Z,74586
2016-12-31T00:45:59.895Z,74587
2016-12-31T00:46:08.541Z,74587
2016-12-31T00:46:17.206Z,74584
2016-12-31T00:46:25.885Z,74590
2016-12-31T00:46:34.561Z,74587
2016-12-31T00:46:43.249Z,74584
2016-12-31T00:46:51.951Z,74585
2016-12-31T00:47:00.625Z,74586
2016-12-31T00:47:09.300Z,74586
2016-12-31T00:47:17.980Z,74588
2016-12-31T00:47:26.659Z,74581
2016-12-31T00:47:35.345Z,74584
2016-12-31T00:47:44.007Z,74587
2016-12-31T00:47:52.675Z,74586
2016-12-31T00:48:01.349Z,74587
2016-12-31T00:48:10.014Z,74587
2016-12-31T00:48:18.662Z,74588
2016-12-31T00:48:27.305Z,74588
2016-12-31T00:48:35.985Z,74581
2016-12-31T00:48:44.682Z,74585
2016-12-31T00:48:53.358Z,74584
2016-12-31T00:49:02.041Z,74585
2016-12-31T00:49:10.722Z,74582
2016-12-31T00:49:19.407Z,74585
2016-12-31T00:49:28.086Z,74583
2016-12-31T00:49:36.772Z,74578
2016-12-31T00:49:45.419Z,74583
2016-12-31T00:49:54.097Z,74587
2016-12-31T00:50:03.148Z,74581
2016-12-31T00:50:11.808Z,74581
2016-12-31T00:50:20.477Z,74586
2016-12-31T00:50:29.127Z,74584
2016-12-31T00:50:37.788Z,74584
2016-12-31T00:50:46.469Z,74587
2016-12-31T00:50:55.114Z,74589
2016-12-31T00:51:03.778Z,74589
2016-12-31T00:51:12.457Z,74582
2016-12-31T00:51:21.142Z,74589
2016-12-31T00:51:29.811Z,74592
2016-12-31T00:51:38.477Z,74590
2016-12-31T00:51:47.155Z,74588
2016-12-31T00:51:55.811Z,74586
2016-12-31T00:52:04.504Z,74589
2016-12-31T00:52:13.178Z,74584
2016-12-31T00:52:21.830Z,74584
2016-12-31T00:52:30.498Z,74589
2016-12-31T00:52:39.176Z,74589
2016-12-31T00:52:47.870Z,74586
2016-12-31T00:52:56.622Z,74584
2016-12-31T00:53:05.290Z,74589
2016-12-31T00:53:13.949Z,74585
2016-12-31T00:53:22.640Z,74587
2016-12-31T00:53:31.313Z,74584
2016-12-31T00:53:39.980Z,74588
2016-12-31T00:53:48.649Z,74588
2016-12-31T00:53:57.320Z,74587
2016-12-31T00:54:06.010Z,74588
2016-12-31T00:54:14.671Z,74589
2016-12-31T00:54:23.340Z,74589
2016-12-31T00:54:32.006Z,74585
2016-12-31T00:54:40.702Z,74590
2016-12-31T00:54:49.385Z,74588
2016-12-31T00:54:58.072Z,74586
2016-12-31T00:55:06.746Z,74584
2016-12-31T00:55:15.423Z,74590
2016-12-31T00:55:24.109Z,74583
2016-12-31T00:55:32.777Z,74585
2016-12-31T00:55:41.436Z,74587
2016-12-31T00:55:50.121Z,74589
2016-12-31T00:55:58.796Z,74589
2016-12-31T00:56:07.463Z,74585
2016-12-31T00:56:16.122Z,74588
2016-12-31T00:56:24.797Z,74587
2016-12-31T00:56:33.449Z,74587
2016-12-31T00:56:42.109Z,74586
2016-12-31T00:56:50.806Z,74589
2016-12-31T00:56:59.480Z,74587
2016-12-31T00:57:08.197Z,74585
2016-12-31T00:57:16.854Z,74587
2016-12-31T00:57:25.543Z,74584
2016-12-31T00:57:34.222Z,74589
2016-12-31T00:57:42.886Z,74586
2016-12-31T00:57:51.563Z,74587
2016-12-31T00:58:00.248Z,74587
2016-12-31T00:58:08.911Z,74584
2016-12-31T00:58:17.581Z,74584
2016-12-31T00:58:26.256Z,74586
2016-12-31T00:58:34.966Z,74585
2016-12-31T00:58:43.611Z,74585
2016-12-31T00:58:52.277Z,74585
2016-12-31T00:59:00.943Z,74588
2016-12-31T00:59:09.585Z,74588
2016-12-31T00:59:18.253Z,74585
2016-12-31T00:59:26.903Z,74588
2016-12-31T00:59:35.561Z,74591
2016-12-31T00:59:44.257Z,74585
2016-12-31T00:59:52.943Z,74586
2016-12-31T01:00:01.621Z,74586
2016-12-31T01:00:10.312Z,74590
2016-12-31T01:00:18.991Z,74587
2016-12-31T01:00:27.674Z,74586
2016-12-31T01:00:36.366Z,74588
2016-12-31T01:00:45.061Z,74590
2016-12-31T01:00:53.757Z,74585
2016-12-31T01:01:02.455Z,74585
2016-12-31T01:01:11.145Z,74587
2016-12-31T01:01:19.823Z,74587
2016-12-31T01:01:28.512Z,74584
2016-12-31T01:01:37.191Z,74588
2016-12-31T01:01:45.865Z,74588
2016-12-31T01:01:54.526Z,74586
2016-12-31T01:02:03.222Z,74585
2016-12-31T01:02:11.887Z,74588
2016-12-31T01:02:20.548Z,74590
2016-12-31T01:02:29.215Z,74588
2016-12-31T01:02:37.885Z,74584
2016-12-31T01:02:46.584Z,74586
2016-12-31T01:02:55.661Z,74588
2016-12-31T01:03:04.325Z,74584
2016-12-31T01:03:13.022Z,74586
2016-12-31T01:03:21.698Z,74584
2016-12-31T01:03:30.374Z,74582
2016-12-31T01:03:39.055Z,74584
2016-12-31T01:03:47.729Z,74585
2016-12-31T01:03:56.375Z,74585
2016-12-31T01:04:05.039Z,74583
2016-12-31T01:04:13.731Z,74586
2016-12-31T01:04:22.377Z,74585
2016-12-31T01:04:31.076Z,74585
2016-12-31T01:04:39.750Z,74586
2016-12-31T01:04:48.417Z,74582
2016-12-31T01:04:57.102Z,74585
2016-12-31T01:05:05.776Z,74590
2016-12-31T01:05:14.462Z,74588
2016-12-31T01:05:23.118Z,74583
2016-12-31T01:05:31.775Z,74587
2016-12-31T01:05:40.443Z,74587
2016-12-31T01:05:49.104Z,74585
2016-12-31T01:05:57.784Z,74585
2016-12-31T01:06:06.457Z,74586
2016-12-31T01:06:15.139Z,74582
2016-12-31T01:06:23.799Z,74584
2016-12-31T01:06:32.466Z,74585
2016-12-31T01:06:41.174Z,74586
2016-12-31T01:06:49.830Z,74588
2016-12-31T01:06:58.501Z,74585
2016-12-31T01:07:07.218Z,74585
2016-12-31T01:07:15.887Z,74580
2016-12-31T01:07:24.549Z,74579
2016-12-31T01:07:33.247Z,74584
2016-12-31T01:07:41.913Z,74581
2016-12-31T01:07:50.571Z,74586
2016-12-31T01:07:59.236Z,74585
2016-12-31T01:08:07.904Z,74584
2016-12-31T01:08:16.580Z,74582
2016-12-31T01:08:25.262Z,74580
2016-12-31T01:08:33.929Z,74582
2016-12-31T01:08:42.618Z,74580
2016-12-31T01:08:51.288Z,74583
2016-12-31T01:08:59.964Z,74582
2016-12-31T01:09:08.660Z,74579
2016-12-31T01:09:17.336Z,74585
2016-12-31T01:09:26.017Z,74586
2016-12-31T01:09:35.051Z,74582
2016-12-31T01:09:43.740Z,74584
2016-12-31T01:09:52.413Z,74579
2016-12-31T01:10:01.076Z,74579
2016-12-31T01:10:09.751Z,74583
2016-12-31T01:10:18.417Z,74582
2016-12-31T01:10:27.112Z,74581
2016-12-31T01:10:35.787Z,74583
2016-12-31T01:10:44.474Z,74578
2016-12-31T01:10:53.151Z,74581
2016-12-31T01:11:01.837Z,74584
2016-12-31T01:11:10.532Z,74583
2016-12-31T01:11:19.190Z,74582
2016-12-31T01:11:28.246Z,74577
2016-12-31T01:11:36.921Z,74581
2016-12-31T01:11:45.586Z,74580
2016-12-31T01:11:54.257Z,74585
2016-12-31T01:12:02.923Z,74581
2016-12-31T01:12:11.629Z,74582
2016-12-31T01:12:20.288Z,74583
2016-12-31T01:12:28.931Z,74584
2016-12-31T01:12:37.599Z,74582
2016-12-31T01:12:46.282Z,74582
2016-12-31T01:12:54.942Z,74582
2016-12-31T01:13:03.639Z,74584
2016-12-31T01:13:12.302Z,74583
2016-12-31T01:13:20.971Z,74580
2016-12-31T01:13:29.634Z,74585
2016-12-31T01:13:38.324Z,74583
2016-12-31T01:13:47.011Z,74587
2016-12-31T01:13:55.686Z,74580
2016-12-31T01:14:04.367Z,74583
2016-12-31T01:14:13.418Z,74582
2016-12-31T01:14:22.093Z,74582
2016-12-31T01:14:30.754Z,74583
2016-12-31T01:14:39.452Z,74581
2016-12-31T01:14:48.144Z,74584
2016-12-31T01:14:56.815Z,74583
2016-12-31T01:15:05.483Z,74586
2016-12-31T01:15:14.150Z,74584
2016-12-31T01:15:22.809Z,74586
2016-12-31T01:15:31.481Z,74586
2016-12-31T01:15:40.149Z,74585
2016-12-31T01:15:48.822Z,74586
2016-12-31T01:15:57.500Z,74583
2016-12-31T01:16:06.178Z,74583
2016-12-31T01:16:14.903Z,74586
2016-12-31T01:16:23.590Z,74585
2016-12-31T01:16:32.253Z,74583
2016-12-31T01:16:40.916Z,74584
2016-12-31T01:16:49.587Z,74585
2016-12-31T01:16:58.249Z,74584
2016-12-31T01:17:06.930Z,74585
2016-12-31T01:17:15.601Z,74580
2016-12-31T01:17:24.250Z,74584
2016-12-31T01:17:32.909Z,74586
2016-12-31T01:17:41.577Z,74584
2016-12-31T01:17:50.263Z,74585
2016-12-31T01:17:58.913Z,74580
2016-12-31T01:18:07.600Z,74581
2016-12-31T01:18:16.282Z,74581
2016-12-31T01:18:24.958Z,74585
2016-12-31T01:18:33.627Z,74584
2016-12-31T01:18:42.300Z,74582
2016-12-31T01:18:50.968Z,74583
2016-12-31T01:18:59.655Z,74589
2016-12-31T01:19:08.322Z,74585
2016-12-31T01:19:16.998Z,74584
2016-12-31T01:19:25.655Z,74582
2016-12-31T01:19:34.326Z,74584
2016-12-31T01:19:42.994Z,74582
2016-12-31T01:19:51.656Z,74584
2016-12-31T01:20:00.307Z,74584
2016-12-31T01:20:08.977Z,74585
2016-12-31T01:20:17.653Z,74584
2016-12-31T01:20:26.334Z,74581
2016-12-31T01:20:34.997Z,74587
2016-12-31T01:20:43.680Z,74578
2016-12-31T01:20:52.357Z,74581
2016-12-31T01:21:01.042Z,74581
2016-12-31T01:21:09.743Z,74580
2016-12-31T01:21:18.433Z,74581
2016-12-31T01:21:27.121Z,74582
2016-12-31T01:21:35.800Z,74582
2016-12-31T01:21:44.471Z,74578
2016-12-31T01:21:53.133Z,74579
2016-12-31T01:22:01.808Z,74583
2016-12-31T01:22:10.456Z,74580
2016-12-31T01:22:19.133Z,74579
2016-12-31T01:22:27.811Z,74577
2016-12-31T01:22:36.482Z,74580
2016-12-31T01:22:45.525Z,74576
2016-12-31T01:22:54.199Z,74583
2016-12-31T01:23:02.872Z,74579
2016-12-31T01:23:11.555Z,74581
2016-12-31T01:23:20.252Z,74582
2016-12-31T01:23:28.926Z,74580
2016-12-31T01:23:37.599Z,74579
2016-12-31T01:23:46.270Z,74581
2016-12-31T01:23:54.976Z,74580
2016-12-31T01:24:03.645Z,74580
2016-12-31T01:24:12.312Z,74578
2016-12-31T01:24:20.981Z,74577
2016-12-31T01:24:29.652Z,74581
2016-12-31T01:24:38.328Z,74579
2016-12-31T01:24:46.997Z,74579
2016-12-31T01:24:55.722Z,74585
2016-12-31T01:25:04.417Z,74578
2016-12-31T01:25:13.062Z,74578
2016-12-31T01:25:21.725Z,74579
2016-12-31T01:25:30.379Z,74579
2016-12-31T01:25:39.110Z,74578
2016-12-31T01:25:47.772Z,74582
2016-12-31T01:25:56.467Z,74577
2016-12-31T01:26:05.155Z,74575
2016-12-31T01:26:13.839Z,74580
2016-12-31T01:26:22.511Z,74580
2016-12-31T01:26:31.185Z,74579
2016-12-31T01:26:39.861Z,74579
2016-12-31T01:26:48.525Z,74576
2016-12-31T01:26:57.186Z,74579
2016-12-31T01:27:05.863Z,74585
2016-12-31T01:27:14.572Z,74576
2016-12-31T01:27:23.249Z,74580
2016-12-31T01:27:31.926Z,74580
2016-12-31T01:27:40.582Z,74576
2016-12-31T01:27:49.265Z,74583
2016-12-31T01:27:57.933Z,74578
2016-12-31T01:28:06.608Z,74581
2016-12-31T01:28:15.271Z,74581
2016-12-31T01:28:23.943Z,74579
2016-12-31T01:28:32.614Z,74577
2016-12-31T01:28:41.274Z,74580
2016-12-31T01:28:49.945Z,74577
2016-12-31T01:28:58.632Z,74574
2016-12-31T01:29:07.319Z,74582
2016-12-31T01:29:15.982Z,74581
2016-12-31T01:29:24.646Z,74577
2016-12-31T01:29:33.325Z,74581
2016-12-31T01:29:41.992Z,74579
2016-12-31T01:29:50.647Z,74581
2016-12-31T01:29:59.318Z,74579
2016-12-31T01:30:07.987Z,74578
2016-12-31T01:30:16.639Z,74579
2016-12-31T01:30:25.326Z,74579
2016-12-31T01:30:34.004Z,74578
2016-12-31T01:30:42.703Z,74585
2016-12-31T01:30:51.373Z,74583
2016-12-31T01:31:00.046Z,74578
2016-12-31T01:31:08.727Z,74584
2016-12-31T01:31:17.393Z,74579
2016-12-31T01:31:26.080Z,74578
2016-12-31T01:31:34.748Z,74578
2016-12-31T01:31:43.429Z,74579
2016-12-31T01:31:52.100Z,74574
2016-12-31T01:32:00.782Z,74582
2016-12-31T01:32:09.454Z,74578
2016-12-31T01:32:18.150Z,74578
2016-12-31T01:32:26.818Z,74578
2016-12-31T01:32:35.511Z,74577
2016-12-31T01:32:44.170Z,74581
2016-12-31T01:32:52.842Z,74581
2016-12-31T01:33:01.515Z,74577
2016-12-31T01:33:10.179Z,74580
2016-12-31T01:33:18.835Z,74580
2016-12-31T01:33:27.529Z,74578
2016-12-31T01:33:36.220Z,74581
2016-12-31T01:33:44.880Z,74574
2016-12-31T01:33:53.555Z,74579
2016-12-31T01:34:02.588Z,74579
2016-12-31T01:34:11.263Z,74576
2016-12-31T01:34:19.934Z,74579
2016-12-31T01:34:28.612Z,74580
2016-12-31T01:34:37.303Z,74578
2016-12-31T01:34:45.994Z,74576
2016-12-31T01:34:54.667Z,74577
2016-12-31T01:35:03.355Z,74576
2016-12-31T01:35:12.032Z,74576
2016-12-31T01:35:20.706Z,74577
2016-12-31T01:35:29.390Z,74576
2016-12-31T01:35:38.036Z,74579
2016-12-31T01:35:46.718Z,74582
2016-12-31T01:35:55.385Z,74582
2016-12-31T01:36:04.065Z,74577
2016-12-31T01:36:12.770Z,74578
2016-12-31T01:36:21.434Z,74579
2016-12-31T01:36:30.108Z,74581
2016-12-31T01:36:38.797Z,74582
2016-12-31T01:36:47.458Z,74575
2016-12-31T01:36:56.130Z,74581
2016-12-31T01:37:05.178Z,74583
2016-12-31T01:37:13.852Z,74583
2016-12-31T01:37:22.527Z,74580
2016-12-31T01:37:31.197Z,74584
2016-12-31T01:37:39.867Z,74585
2016-12-31T01:37:48.553Z,74577
2016-12-31T01:37:57.203Z,74583
2016-12-31T01:38:06.250Z,74584
2016-12-31T01:38:14.908Z,74583
2016-12-31T01:38:23.575Z,74579
2016-12-31T01:38:32.231Z,74581
2016-12-31T01:38:40.929Z,74581
2016-12-31T01:38:49.597Z,74579
2016-12-31T01:38:58.639Z,74579
2016-12-31T01:39:07.302Z,74573
2016-12-31T01:39:15.986Z,74577
2016-12-31T01:39:24.633Z,74582
2016-12-31T01:39:33.291Z,74582
2016-12-31T01:39:41.983Z,74578
2016-12-31T01:39:50.657Z,74582
2016-12-31T01:39:59.323Z,74578
2016-12-31T01:40:07.999Z,74576
2016-12-31T01:40:16.711Z,74579
2016-12-31T01:40:25.368Z,74579
2016-12-31T01:40:34.042Z,74575
2016-12-31T01:40:42.722Z,74584
2016-12-31T01:40:51.416Z,74582
2016-12-31T01:41:00.098Z,74577
2016-12-31T01:41:08.783Z,74580
2016-12-31T01:41:17.439Z,74578
2016-12-31T01:41:26.113Z,74577
2016-12-31T01:41:34.780Z,74577
2016-12-31T01:41:43.451Z,74576
2016-12-31T01:41:52.114Z,74577
2016-12-31T01:42:00.779Z,74578
2016-12-31T01:42:09.446Z,74575
2016-12-31T01:42:18.127Z,74576
2016-12-31T01:42:26.798Z,74579
2016-12-31T01:42:35.481Z,74579
2016-12-31T01:42:44.174Z,74578
2016-12-31T01:42:52.844Z,74577
2016-12-31T01:43:01.557Z,74578
2016-12-31T01:43:10.231Z,74578
2016-12-31T01:43:18.909Z,74578
2016-12-31T01:43:27.576Z,74581
2016-12-31T01:43:36.246Z,74579
2016-12-31T01:43:44.937Z,74575
2016-12-31T01:43:53.588Z,74578
2016-12-31T01:44:02.241Z,74578
2016-12-31T01:44:10.893Z,74581
2016-12-31T01:44:19.580Z,74577
2016-12-31T01:44:28.233Z,74581
2016-12-31T01:44:36.915Z,74581
2016-12-31T01:44:45.603Z,74580
2016-12-31T01:44:54.245Z,74578
2016-12-31T01:45:02.920Z,74578
2016-12-31T01:45:11.604Z,74576
2016-12-31T01:45:20.658Z,74578
2016-12-31T01:45:29.325Z,74576
2016-12-31T01:45:37.989Z,74574
2016-12-31T01:45:46.669Z,74574
2016-12-31T01:45:55.335Z,74578
2016-12-31T01:46:04.427Z,74577
2016-12-31T01:46:13.191Z,74576
2016-12-31T01:46:21.862Z,74579
2016-12-31T01:46:30.535Z,74578
2016-12-31T01:46:39.200Z,74575
2016-12-31T01:46:47.900Z,74576
2016-12-31T01:46:56.572Z,74575
2016-12-31T01:47:05.243Z,74577
2016-12-31T01:47:13.901Z,74577
2016-12-31T01:47:22.608Z,74577
2016-12-31T01:47:31.284Z,74572
2016-12-31T01:47:39.970Z,74574
2016-12-31T01:47:48.625Z,74581
2016-12-31T01:47:57.296Z,74575
2016-12-31T01:48:05.995Z,74574
2016-12-31T01:48:14.655Z,74579
2016-12-31T01:48:23.344Z,74576
2016-12-31T01:48:32.044Z,74576
2016-12-31T01:48:40.700Z,74576
2016-12-31T01:48:49.355Z,74575
2016-12-31T01:48:58.038Z,74573
2016-12-31T01:49:06.756Z,74574
2016-12-31T01:49:15.448Z,74575
2016-12-31T01:49:24.109Z,74575
2016-12-31T01:49:32.788Z,74576
2016-12-31T01:49:41.469Z,74574
2016-12-31T01:49:50.139Z,74573
2016-12-31T01:49:58.816Z,74576
2016-12-31T01:50:07.523Z,74573
2016-12-31T01:50:16.201Z,74575
2016-12-31T01:50:24.877Z,74576
2016-12-31T01:50:33.561Z,74573
2016-12-31T01:50:42.227Z,74576
2016-12-31T01:50:50.903Z,74574
2016-12-31T01:50:59.552Z,74570
2016-12-31T01:51:08.241Z,74577
2016-12-31T01:51:16.902Z,74577
2016-12-31T01:51:25.563Z,74576
2016-12-31T01:51:34.242Z,74573
2016-12-31T01:51:42.899Z,74574
2016-12-31T01:51:51.587Z,74574